sensor_id;sensor_type;location;lat;lon;timestamp;P1;durP1;ratioP1;P2;durP2;ratioP2
9330;SDS011;4704;50.470;12.072;2023-05-27T00:01:33;2.70;;;2.15;;
9330;SDS011;4704;50.470;12.072;2023-05-27T00:04:02;3.20;;;2.50;;
9330;SDS011;4704;50.470;12.072;2023-05-27T00:06:30;3.97;;;2.63;;
9330;SDS011;4704;50.470;12.072;2023-05-27T00:08:57;3.83;;;2.53;;
9330;SDS011;4704;50.470;12.072;2023-05-27T00:11:25;3.83;;;2.50;;
9330;SDS011;4704;50.470;12.072;2023-05-27T00:13:52;4.47;;;2.78;;
9330;SDS011;4704;50.470;12.072;2023-05-27T00:16:20;3.97;;;2.45;;
9330;SDS011;4704;50.470;12.072;2023-05-27T00:18:48;3.58;;;2.60;;
9330;SDS011;4704;50.470;12.072;2023-05-27T00:21:19;4.00;;;2.63;;
9330;SDS011;4704;50.470;12.072;2023-05-27T00:23:47;3.25;;;2.72;;
9330;SDS011;4704;50.470;12.072;2023-05-27T00:26:15;2.78;;;2.40;;
9330;SDS011;4704;50.470;12.072;2023-05-27T00:28:43;3.92;;;2.40;;
9330;SDS011;4704;50.470;12.072;2023-05-27T00:31:11;2.67;;;2.45;;
9330;SDS011;4704;50.470;12.072;2023-05-27T00:33:38;3.95;;;2.38;;
9330;SDS011;4704;50.470;12.072;2023-05-27T00:36:06;3.92;;;2.53;;
9330;SDS011;4704;50.470;12.072;2023-05-27T00:38:35;2.72;;;2.33;;
9330;SDS011;4704;50.470;12.072;2023-05-27T00:41:02;4.40;;;2.50;;
9330;SDS011;4704;50.470;12.072;2023-05-27T00:43:31;4.45;;;2.50;;
9330;SDS011;4704;50.470;12.072;2023-05-27T00:45:59;5.10;;;2.60;;
9330;SDS011;4704;50.470;12.072;2023-05-27T00:48:26;4.93;;;2.90;;
9330;SDS011;4704;50.470;12.072;2023-05-27T00:50:54;3.58;;;2.72;;
9330;SDS011;4704;50.470;12.072;2023-05-27T00:53:22;4.32;;;3.00;;
9330;SDS011;4704;50.470;12.072;2023-05-27T00:55:53;3.83;;;2.72;;
9330;SDS011;4704;50.470;12.072;2023-05-27T00:58:21;3.38;;;2.60;;
9330;SDS011;4704;50.470;12.072;2023-05-27T01:00:48;5.10;;;3.10;;
9330;SDS011;4704;50.470;12.072;2023-05-27T01:03:16;4.45;;;2.72;;
9330;SDS011;4704;50.470;12.072;2023-05-27T01:05:45;4.60;;;3.05;;
9330;SDS011;4704;50.470;12.072;2023-05-27T01:08:16;4.25;;;2.50;;
9330;SDS011;4704;50.470;12.072;2023-05-27T01:10:46;4.47;;;3.05;;
9330;SDS011;4704;50.470;12.072;2023-05-27T01:13:18;4.47;;;2.83;;
9330;SDS011;4704;50.470;12.072;2023-05-27T01:15:51;4.68;;;2.70;;
9330;SDS011;4704;50.470;12.072;2023-05-27T01:18:20;4.82;;;2.90;;
9330;SDS011;4704;50.470;12.072;2023-05-27T01:20:49;3.70;;;2.60;;
9330;SDS011;4704;50.470;12.072;2023-05-27T01:23:19;3.70;;;2.90;;
9330;SDS011;4704;50.470;12.072;2023-05-27T01:25:47;3.13;;;2.78;;
9330;SDS011;4704;50.470;12.072;2023-05-27T01:28:15;3.85;;;2.70;;
9330;SDS011;4704;50.470;12.072;2023-05-27T01:30:42;3.17;;;2.55;;
9330;SDS011;4704;50.470;12.072;2023-05-27T01:33:11;4.65;;;2.50;;
9330;SDS011;4704;50.470;12.072;2023-05-27T01:35:41;4.78;;;2.90;;
9330;SDS011;4704;50.470;12.072;2023-05-27T01:38:12;4.50;;;3.08;;
9330;SDS011;4704;50.470;12.072;2023-05-27T01:40:41;3.90;;;2.60;;
9330;SDS011;4704;50.470;12.072;2023-05-27T01:43:10;5.15;;;2.60;;
9330;SDS011;4704;50.470;12.072;2023-05-27T01:45:38;3.65;;;2.67;;
9330;SDS011;4704;50.470;12.072;2023-05-27T01:48:06;4.10;;;2.40;;
9330;SDS011;4704;50.470;12.072;2023-05-27T01:50:34;4.30;;;2.50;;
9330;SDS011;4704;50.470;12.072;2023-05-27T01:53:02;3.78;;;2.72;;
9330;SDS011;4704;50.470;12.072;2023-05-27T01:55:30;3.70;;;2.70;;
9330;SDS011;4704;50.470;12.072;2023-05-27T01:57:59;4.28;;;2.72;;
9330;SDS011;4704;50.470;12.072;2023-05-27T02:00:26;5.07;;;2.67;;
9330;SDS011;4704;50.470;12.072;2023-05-27T02:02:54;3.13;;;2.70;;
9330;SDS011;4704;50.470;12.072;2023-05-27T02:05:22;3.90;;;2.38;;
9330;SDS011;4704;50.470;12.072;2023-05-27T02:07:49;3.97;;;2.70;;
9330;SDS011;4704;50.470;12.072;2023-05-27T02:10:16;3.30;;;2.45;;
9330;SDS011;4704;50.470;12.072;2023-05-27T02:12:44;3.58;;;2.80;;
9330;SDS011;4704;50.470;12.072;2023-05-27T02:15:14;4.40;;;2.58;;
9330;SDS011;4704;50.470;12.072;2023-05-27T02:17:41;3.78;;;2.50;;
9330;SDS011;4704;50.470;12.072;2023-05-27T02:20:12;3.63;;;2.53;;
9330;SDS011;4704;50.470;12.072;2023-05-27T02:22:39;3.22;;;2.40;;
9330;SDS011;4704;50.470;12.072;2023-05-27T02:25:07;3.78;;;2.33;;
9330;SDS011;4704;50.470;12.072;2023-05-27T02:27:35;4.68;;;2.88;;
9330;SDS011;4704;50.470;12.072;2023-05-27T02:30:02;2.80;;;2.50;;
9330;SDS011;4704;50.470;12.072;2023-05-27T02:32:31;4.28;;;3.05;;
9330;SDS011;4704;50.470;12.072;2023-05-27T02:34:58;3.58;;;2.63;;
9330;SDS011;4704;50.470;12.072;2023-05-27T02:37:26;3.95;;;2.67;;
9330;SDS011;4704;50.470;12.072;2023-05-27T02:39:54;3.60;;;2.40;;
9330;SDS011;4704;50.470;12.072;2023-05-27T02:42:21;3.97;;;2.42;;
9330;SDS011;4704;50.470;12.072;2023-05-27T02:44:48;3.08;;;2.50;;
9330;SDS011;4704;50.470;12.072;2023-05-27T02:47:16;3.83;;;2.60;;
9330;SDS011;4704;50.470;12.072;2023-05-27T02:49:44;3.22;;;2.53;;
9330;SDS011;4704;50.470;12.072;2023-05-27T02:52:12;3.90;;;2.75;;
9330;SDS011;4704;50.470;12.072;2023-05-27T02:54:39;4.00;;;2.55;;
9330;SDS011;4704;50.470;12.072;2023-05-27T02:57:07;2.78;;;2.40;;
9330;SDS011;4704;50.470;12.072;2023-05-27T02:59:34;5.47;;;2.55;;
9330;SDS011;4704;50.470;12.072;2023-05-27T03:02:01;4.28;;;2.55;;
9330;SDS011;4704;50.470;12.072;2023-05-27T03:04:30;4.28;;;2.60;;
9330;SDS011;4704;50.470;12.072;2023-05-27T03:06:58;4.28;;;2.58;;
9330;SDS011;4704;50.470;12.072;2023-05-27T03:09:26;3.25;;;2.22;;
9330;SDS011;4704;50.470;12.072;2023-05-27T03:11:53;3.65;;;2.60;;
9330;SDS011;4704;50.470;12.072;2023-05-27T03:14:20;4.38;;;2.45;;
9330;SDS011;4704;50.470;12.072;2023-05-27T03:16:48;3.92;;;2.80;;
9330;SDS011;4704;50.470;12.072;2023-05-27T03:19:16;4.78;;;3.05;;
9330;SDS011;4704;50.470;12.072;2023-05-27T03:21:43;3.40;;;2.67;;
9330;SDS011;4704;50.470;12.072;2023-05-27T03:24:12;3.28;;;2.60;;
9330;SDS011;4704;50.470;12.072;2023-05-27T03:26:39;3.78;;;2.88;;
9330;SDS011;4704;50.470;12.072;2023-05-27T03:29:06;3.63;;;2.60;;
9330;SDS011;4704;50.470;12.072;2023-05-27T03:31:34;2.70;;;2.05;;
9330;SDS011;4704;50.470;12.072;2023-05-27T03:34:01;4.22;;;2.40;;
9330;SDS011;4704;50.470;12.072;2023-05-27T03:36:29;3.22;;;2.47;;
9330;SDS011;4704;50.470;12.072;2023-05-27T03:38:56;3.78;;;2.30;;
9330;SDS011;4704;50.470;12.072;2023-05-27T03:41:25;3.40;;;2.67;;
9330;SDS011;4704;50.470;12.072;2023-05-27T03:43:52;4.35;;;2.80;;
9330;SDS011;4704;50.470;12.072;2023-05-27T03:46:20;3.50;;;2.47;;
9330;SDS011;4704;50.470;12.072;2023-05-27T03:48:47;3.45;;;2.40;;
9330;SDS011;4704;50.470;12.072;2023-05-27T03:51:15;4.38;;;2.60;;
9330;SDS011;4704;50.470;12.072;2023-05-27T03:53:42;4.28;;;3.00;;
9330;SDS011;4704;50.470;12.072;2023-05-27T03:56:09;3.28;;;2.65;;
9330;SDS011;4704;50.470;12.072;2023-05-27T03:58:38;3.05;;;2.55;;
9330;SDS011;4704;50.470;12.072;2023-05-27T04:01:06;3.45;;;2.42;;
9330;SDS011;4704;50.470;12.072;2023-05-27T04:03:33;4.53;;;2.72;;
9330;SDS011;4704;50.470;12.072;2023-05-27T04:06:02;3.28;;;2.70;;
9330;SDS011;4704;50.470;12.072;2023-05-27T04:08:30;2.85;;;2.08;;
9330;SDS011;4704;50.470;12.072;2023-05-27T04:10:58;4.40;;;2.83;;
9330;SDS011;4704;50.470;12.072;2023-05-27T04:13:25;3.15;;;2.60;;
9330;SDS011;4704;50.470;12.072;2023-05-27T04:15:54;4.47;;;2.88;;
9330;SDS011;4704;50.470;12.072;2023-05-27T04:18:22;3.63;;;2.47;;
9330;SDS011;4704;50.470;12.072;2023-05-27T04:20:50;3.45;;;2.72;;
9330;SDS011;4704;50.470;12.072;2023-05-27T04:23:17;4.57;;;2.72;;
9330;SDS011;4704;50.470;12.072;2023-05-27T04:25:45;3.70;;;2.60;;
9330;SDS011;4704;50.470;12.072;2023-05-27T04:28:13;5.22;;;2.92;;
9330;SDS011;4704;50.470;12.072;2023-05-27T04:30:41;4.35;;;2.58;;
9330;SDS011;4704;50.470;12.072;2023-05-27T04:33:12;3.20;;;2.50;;
9330;SDS011;4704;50.470;12.072;2023-05-27T04:35:40;3.75;;;2.55;;
9330;SDS011;4704;50.470;12.072;2023-05-27T04:38:08;4.32;;;2.60;;
9330;SDS011;4704;50.470;12.072;2023-05-27T04:40:41;3.67;;;2.40;;
9330;SDS011;4704;50.470;12.072;2023-05-27T04:43:10;2.80;;;2.55;;
9330;SDS011;4704;50.470;12.072;2023-05-27T04:45:39;4.65;;;2.70;;
9330;SDS011;4704;50.470;12.072;2023-05-27T04:48:08;3.30;;;2.45;;
9330;SDS011;4704;50.470;12.072;2023-05-27T04:50:36;5.22;;;2.67;;
9330;SDS011;4704;50.470;12.072;2023-05-27T04:53:04;4.40;;;2.85;;
9330;SDS011;4704;50.470;12.072;2023-05-27T04:55:32;3.03;;;2.50;;
9330;SDS011;4704;50.470;12.072;2023-05-27T04:57:59;3.28;;;2.72;;
9330;SDS011;4704;50.470;12.072;2023-05-27T05:00:28;3.42;;;2.67;;
9330;SDS011;4704;50.470;12.072;2023-05-27T05:03:04;3.70;;;2.80;;
9330;SDS011;4704;50.470;12.072;2023-05-27T05:05:32;3.88;;;3.03;;
9330;SDS011;4704;50.470;12.072;2023-05-27T05:08:00;3.65;;;2.53;;
9330;SDS011;4704;50.470;12.072;2023-05-27T05:10:30;4.32;;;2.80;;
9330;SDS011;4704;50.470;12.072;2023-05-27T05:12:57;4.57;;;3.15;;
9330;SDS011;4704;50.470;12.072;2023-05-27T05:15:24;3.97;;;2.80;;
9330;SDS011;4704;50.470;12.072;2023-05-27T05:17:52;5.03;;;3.13;;
9330;SDS011;4704;50.470;12.072;2023-05-27T05:20:19;3.80;;;2.90;;
9330;SDS011;4704;50.470;12.072;2023-05-27T05:22:46;4.93;;;3.40;;
9330;SDS011;4704;50.470;12.072;2023-05-27T05:25:16;5.47;;;3.33;;
9330;SDS011;4704;50.470;12.072;2023-05-27T05:27:43;4.05;;;3.00;;
9330;SDS011;4704;50.470;12.072;2023-05-27T05:30:11;5.10;;;3.03;;
9330;SDS011;4704;50.470;12.072;2023-05-27T05:32:38;3.80;;;2.80;;
9330;SDS011;4704;50.470;12.072;2023-05-27T05:35:06;3.85;;;3.00;;
9330;SDS011;4704;50.470;12.072;2023-05-27T05:37:34;4.80;;;2.97;;
9330;SDS011;4704;50.470;12.072;2023-05-27T05:40:01;3.92;;;3.20;;
9330;SDS011;4704;50.470;12.072;2023-05-27T05:42:30;5.03;;;3.13;;
9330;SDS011;4704;50.470;12.072;2023-05-27T05:44:57;4.47;;;2.97;;
9330;SDS011;4704;50.470;12.072;2023-05-27T05:47:24;5.25;;;3.13;;
9330;SDS011;4704;50.470;12.072;2023-05-27T05:49:52;4.97;;;3.25;;
9330;SDS011;4704;50.470;12.072;2023-05-27T05:52:19;4.90;;;3.30;;
9330;SDS011;4704;50.470;12.072;2023-05-27T05:54:47;4.85;;;3.28;;
9330;SDS011;4704;50.470;12.072;2023-05-27T05:57:14;5.00;;;3.38;;
9330;SDS011;4704;50.470;12.072;2023-05-27T05:59:43;4.57;;;3.10;;
9330;SDS011;4704;50.470;12.072;2023-05-27T06:02:10;6.53;;;3.63;;
9330;SDS011;4704;50.470;12.072;2023-05-27T06:04:38;5.22;;;3.58;;
9330;SDS011;4704;50.470;12.072;2023-05-27T06:07:05;5.30;;;3.60;;
9330;SDS011;4704;50.470;12.072;2023-05-27T06:09:33;6.30;;;3.22;;
9330;SDS011;4704;50.470;12.072;2023-05-27T06:12:00;5.05;;;3.67;;
9330;SDS011;4704;50.470;12.072;2023-05-27T06:14:27;6.28;;;3.75;;
9330;SDS011;4704;50.470;12.072;2023-05-27T06:16:56;5.10;;;3.50;;
9330;SDS011;4704;50.470;12.072;2023-05-27T06:19:24;5.65;;;3.80;;
9330;SDS011;4704;50.470;12.072;2023-05-27T06:21:51;5.78;;;3.70;;
9330;SDS011;4704;50.470;12.072;2023-05-27T06:24:18;5.65;;;3.90;;
9330;SDS011;4704;50.470;12.072;2023-05-27T06:26:46;6.22;;;3.72;;
9330;SDS011;4704;50.470;12.072;2023-05-27T06:29:14;6.53;;;3.75;;
9330;SDS011;4704;50.470;12.072;2023-05-27T06:31:43;5.43;;;3.72;;
9330;SDS011;4704;50.470;12.072;2023-05-27T06:34:13;4.82;;;3.50;;
9330;SDS011;4704;50.470;12.072;2023-05-27T06:36:40;6.07;;;3.47;;
9330;SDS011;4704;50.470;12.072;2023-05-27T06:39:07;6.15;;;3.55;;
9330;SDS011;4704;50.470;12.072;2023-05-27T06:41:35;6.85;;;3.70;;
9330;SDS011;4704;50.470;12.072;2023-05-27T06:44:02;5.60;;;4.05;;
9330;SDS011;4704;50.470;12.072;2023-05-27T06:46:30;6.07;;;3.45;;
9330;SDS011;4704;50.470;12.072;2023-05-27T06:48:57;5.32;;;3.53;;
9330;SDS011;4704;50.470;12.072;2023-05-27T06:51:26;5.57;;;4.07;;
9330;SDS011;4704;50.470;12.072;2023-05-27T06:53:53;5.57;;;3.78;;
9330;SDS011;4704;50.470;12.072;2023-05-27T06:56:21;4.95;;;3.60;;
9330;SDS011;4704;50.470;12.072;2023-05-27T06:58:48;5.68;;;3.40;;
9330;SDS011;4704;50.470;12.072;2023-05-27T07:01:16;6.13;;;3.83;;
9330;SDS011;4704;50.470;12.072;2023-05-27T07:03:43;6.20;;;4.15;;
9330;SDS011;4704;50.470;12.072;2023-05-27T07:06:10;5.03;;;3.30;;
9330;SDS011;4704;50.470;12.072;2023-05-27T07:08:39;7.22;;;4.20;;
9330;SDS011;4704;50.470;12.072;2023-05-27T07:11:06;7.28;;;3.90;;
9330;SDS011;4704;50.470;12.072;2023-05-27T07:13:34;7.75;;;3.80;;
9330;SDS011;4704;50.470;12.072;2023-05-27T07:16:01;7.88;;;3.55;;
9330;SDS011;4704;50.470;12.072;2023-05-27T07:18:28;6.18;;;3.92;;
9330;SDS011;4704;50.470;12.072;2023-05-27T07:20:56;5.32;;;3.28;;
9330;SDS011;4704;50.470;12.072;2023-05-27T07:23:23;6.68;;;3.35;;
9330;SDS011;4704;50.470;12.072;2023-05-27T07:25:52;6.28;;;3.90;;
9330;SDS011;4704;50.470;12.072;2023-05-27T07:28:19;9.35;;;3.78;;
9330;SDS011;4704;50.470;12.072;2023-05-27T07:30:46;5.88;;;3.60;;
9330;SDS011;4704;50.470;12.072;2023-05-27T07:33:14;6.38;;;3.63;;
9330;SDS011;4704;50.470;12.072;2023-05-27T07:35:41;5.68;;;3.50;;
9330;SDS011;4704;50.470;12.072;2023-05-27T07:38:08;7.35;;;3.40;;
9330;SDS011;4704;50.470;12.072;2023-05-27T07:40:36;6.25;;;3.35;;
9330;SDS011;4704;50.470;12.072;2023-05-27T07:43:05;4.78;;;3.25;;
9330;SDS011;4704;50.470;12.072;2023-05-27T07:45:32;6.88;;;3.40;;
9330;SDS011;4704;50.470;12.072;2023-05-27T07:47:59;6.13;;;3.67;;
9330;SDS011;4704;50.470;12.072;2023-05-27T07:50:27;6.47;;;3.35;;
9330;SDS011;4704;50.470;12.072;2023-05-27T07:52:54;6.53;;;3.40;;
9330;SDS011;4704;50.470;12.072;2023-05-27T07:55:22;5.78;;;3.65;;
9330;SDS011;4704;50.470;12.072;2023-05-27T07:57:49;7.35;;;3.85;;
9330;SDS011;4704;50.470;12.072;2023-05-27T08:00:18;6.60;;;3.70;;
9330;SDS011;4704;50.470;12.072;2023-05-27T08:02:46;8.82;;;3.55;;
9330;SDS011;4704;50.470;12.072;2023-05-27T08:05:13;8.55;;;3.78;;
9330;SDS011;4704;50.470;12.072;2023-05-27T08:07:40;7.28;;;3.60;;
9330;SDS011;4704;50.470;12.072;2023-05-27T08:10:08;7.65;;;3.40;;
9330;SDS011;4704;50.470;12.072;2023-05-27T08:12:36;7.40;;;3.60;;
9330;SDS011;4704;50.470;12.072;2023-05-27T08:15:04;6.53;;;3.72;;
9330;SDS011;4704;50.470;12.072;2023-05-27T08:17:33;7.68;;;3.80;;
9330;SDS011;4704;50.470;12.072;2023-05-27T08:20:01;7.55;;;4.03;;
9330;SDS011;4704;50.470;12.072;2023-05-27T08:22:30;7.28;;;3.90;;
9330;SDS011;4704;50.470;12.072;2023-05-27T08:24:58;7.93;;;3.25;;
9330;SDS011;4704;50.470;12.072;2023-05-27T08:30:08;7.05;;;3.65;;
9330;SDS011;4704;50.470;12.072;2023-05-27T08:32:37;7.72;;;3.90;;
9330;SDS011;4704;50.470;12.072;2023-05-27T08:35:04;5.80;;;3.58;;
9330;SDS011;4704;50.470;12.072;2023-05-27T08:37:33;5.05;;;3.42;;
9330;SDS011;4704;50.470;12.072;2023-05-27T08:40:04;6.82;;;3.88;;
9330;SDS011;4704;50.470;12.072;2023-05-27T08:42:47;5.55;;;3.55;;
9330;SDS011;4704;50.470;12.072;2023-05-27T08:45:15;8.05;;;3.92;;
9330;SDS011;4704;50.470;12.072;2023-05-27T08:47:44;6.05;;;3.50;;
9330;SDS011;4704;50.470;12.072;2023-05-27T08:50:14;8.43;;;3.80;;
9330;SDS011;4704;50.470;12.072;2023-05-27T08:52:44;6.43;;;3.65;;
9330;SDS011;4704;50.470;12.072;2023-05-27T08:55:12;6.50;;;3.80;;
9330;SDS011;4704;50.470;12.072;2023-05-27T08:57:42;9.05;;;3.75;;
9330;SDS011;4704;50.470;12.072;2023-05-27T09:00:11;6.38;;;3.67;;
9330;SDS011;4704;50.470;12.072;2023-05-27T09:02:40;6.15;;;3.38;;
9330;SDS011;4704;50.470;12.072;2023-05-27T09:05:09;6.50;;;3.28;;
9330;SDS011;4704;50.470;12.072;2023-05-27T09:07:37;6.30;;;3.83;;
9330;SDS011;4704;50.470;12.072;2023-05-27T09:10:05;7.15;;;3.35;;
9330;SDS011;4704;50.470;12.072;2023-05-27T09:12:33;5.00;;;3.20;;
9330;SDS011;4704;50.470;12.072;2023-05-27T09:15:00;5.20;;;3.70;;
9330;SDS011;4704;50.470;12.072;2023-05-27T09:17:28;8.15;;;3.65;;
9330;SDS011;4704;50.470;12.072;2023-05-27T09:19:57;5.63;;;3.08;;
9330;SDS011;4704;50.470;12.072;2023-05-27T09:22:27;5.38;;;3.20;;
9330;SDS011;4704;50.470;12.072;2023-05-27T09:24:55;6.03;;;3.47;;
9330;SDS011;4704;50.470;12.072;2023-05-27T09:27:26;6.15;;;3.60;;
9330;SDS011;4704;50.470;12.072;2023-05-27T09:29:53;6.65;;;3.35;;
9330;SDS011;4704;50.470;12.072;2023-05-27T09:32:24;6.13;;;3.60;;
9330;SDS011;4704;50.470;12.072;2023-05-27T09:34:52;7.10;;;3.90;;
9330;SDS011;4704;50.470;12.072;2023-05-27T09:37:19;7.25;;;3.50;;
9330;SDS011;4704;50.470;12.072;2023-05-27T09:39:50;5.65;;;3.05;;
9330;SDS011;4704;50.470;12.072;2023-05-27T09:42:18;5.85;;;3.38;;
9330;SDS011;4704;50.470;12.072;2023-05-27T09:44:46;7.90;;;3.88;;
9330;SDS011;4704;50.470;12.072;2023-05-27T09:47:15;6.47;;;3.40;;
9330;SDS011;4704;50.470;12.072;2023-05-27T09:49:45;5.03;;;3.42;;
9330;SDS011;4704;50.470;12.072;2023-05-27T09:52:14;5.72;;;3.72;;
9330;SDS011;4704;50.470;12.072;2023-05-27T09:54:44;8.65;;;3.88;;
9330;SDS011;4704;50.470;12.072;2023-05-27T09:57:13;6.65;;;3.75;;
9330;SDS011;4704;50.470;12.072;2023-05-27T09:59:41;6.43;;;3.40;;
9330;SDS011;4704;50.470;12.072;2023-05-27T10:02:09;6.65;;;3.80;;
9330;SDS011;4704;50.470;12.072;2023-05-27T10:04:42;6.45;;;3.55;;
9330;SDS011;4704;50.470;12.072;2023-05-27T10:07:10;6.30;;;3.45;;
9330;SDS011;4704;50.470;12.072;2023-05-27T10:09:37;6.05;;;3.67;;
9330;SDS011;4704;50.470;12.072;2023-05-27T10:12:05;5.78;;;3.50;;
9330;SDS011;4704;50.470;12.072;2023-05-27T10:14:34;8.07;;;3.80;;
9330;SDS011;4704;50.470;12.072;2023-05-27T10:17:03;5.60;;;3.50;;
9330;SDS011;4704;50.470;12.072;2023-05-27T10:19:30;4.97;;;2.95;;
9330;SDS011;4704;50.470;12.072;2023-05-27T10:22:08;5.65;;;3.70;;
9330;SDS011;4704;50.470;12.072;2023-05-27T10:24:36;6.15;;;3.90;;
9330;SDS011;4704;50.470;12.072;2023-05-27T10:27:04;5.95;;;3.45;;
9330;SDS011;4704;50.470;12.072;2023-05-27T10:29:36;6.20;;;3.60;;
9330;SDS011;4704;50.470;12.072;2023-05-27T10:32:04;5.75;;;3.70;;
9330;SDS011;4704;50.470;12.072;2023-05-27T10:34:34;6.65;;;3.70;;
9330;SDS011;4704;50.470;12.072;2023-05-27T10:37:02;6.03;;;3.53;;
9330;SDS011;4704;50.470;12.072;2023-05-27T10:39:29;5.45;;;3.53;;
9330;SDS011;4704;50.470;12.072;2023-05-27T10:41:57;4.50;;;3.40;;
9330;SDS011;4704;50.470;12.072;2023-05-27T10:44:28;7.80;;;3.40;;
9330;SDS011;4704;50.470;12.072;2023-05-27T10:47:00;6.18;;;3.42;;
9330;SDS011;4704;50.470;12.072;2023-05-27T10:49:28;6.18;;;3.50;;
9330;SDS011;4704;50.470;12.072;2023-05-27T10:52:03;5.47;;;3.53;;
9330;SDS011;4704;50.470;12.072;2023-05-27T10:54:36;5.90;;;3.28;;
9330;SDS011;4704;50.470;12.072;2023-05-27T10:57:03;5.43;;;3.10;;
9330;SDS011;4704;50.470;12.072;2023-05-27T10:59:35;6.50;;;3.28;;
9330;SDS011;4704;50.470;12.072;2023-05-27T11:02:07;5.80;;;3.33;;
9330;SDS011;4704;50.470;12.072;2023-05-27T11:04:35;4.93;;;3.08;;
9330;SDS011;4704;50.470;12.072;2023-05-27T11:07:03;4.50;;;2.95;;
9330;SDS011;4704;50.470;12.072;2023-05-27T11:09:31;5.93;;;3.30;;
9330;SDS011;4704;50.470;12.072;2023-05-27T11:12:00;5.93;;;3.40;;
9330;SDS011;4704;50.470;12.072;2023-05-27T11:14:28;4.95;;;3.20;;
9330;SDS011;4704;50.470;12.072;2023-05-27T11:16:57;5.53;;;2.90;;
9330;SDS011;4704;50.470;12.072;2023-05-27T11:19:25;4.63;;;3.05;;
9330;SDS011;4704;50.470;12.072;2023-05-27T11:21:53;6.95;;;3.80;;
9330;SDS011;4704;50.470;12.072;2023-05-27T11:24:21;4.35;;;3.08;;
9330;SDS011;4704;50.470;12.072;2023-05-27T11:26:48;5.30;;;3.08;;
9330;SDS011;4704;50.470;12.072;2023-05-27T11:29:16;5.65;;;3.55;;
9330;SDS011;4704;50.470;12.072;2023-05-27T11:31:46;6.70;;;3.45;;
9330;SDS011;4704;50.470;12.072;2023-05-27T11:34:13;5.07;;;3.00;;
9330;SDS011;4704;50.470;12.072;2023-05-27T11:36:43;5.60;;;3.30;;
9330;SDS011;4704;50.470;12.072;2023-05-27T11:39:11;4.28;;;2.90;;
9330;SDS011;4704;50.470;12.072;2023-05-27T11:41:51;4.55;;;2.92;;
9330;SDS011;4704;50.470;12.072;2023-05-27T11:44:20;4.32;;;2.97;;
9330;SDS011;4704;50.470;12.072;2023-05-27T11:46:49;4.85;;;3.22;;
9330;SDS011;4704;50.470;12.072;2023-05-27T11:49:17;5.93;;;3.15;;
9330;SDS011;4704;50.470;12.072;2023-05-27T11:51:46;5.40;;;3.00;;
9330;SDS011;4704;50.470;12.072;2023-05-27T11:54:18;6.15;;;3.10;;
9330;SDS011;4704;50.470;12.072;2023-05-27T11:56:47;5.22;;;3.20;;
9330;SDS011;4704;50.470;12.072;2023-05-27T11:59:14;6.25;;;2.90;;
9330;SDS011;4704;50.470;12.072;2023-05-27T12:01:42;4.55;;;2.70;;
9330;SDS011;4704;50.470;12.072;2023-05-27T12:04:10;4.22;;;2.65;;
9330;SDS011;4704;50.470;12.072;2023-05-27T12:06:38;4.28;;;3.00;;
9330;SDS011;4704;50.470;12.072;2023-05-27T12:09:07;3.78;;;3.03;;
9330;SDS011;4704;50.470;12.072;2023-05-27T12:11:34;3.38;;;2.50;;
9330;SDS011;4704;50.470;12.072;2023-05-27T12:14:02;3.38;;;2.67;;
9330;SDS011;4704;50.470;12.072;2023-05-27T12:16:30;4.70;;;3.00;;
9330;SDS011;4704;50.470;12.072;2023-05-27T12:18:57;4.25;;;2.95;;
9330;SDS011;4704;50.470;12.072;2023-05-27T12:21:25;4.05;;;2.47;;
9330;SDS011;4704;50.470;12.072;2023-05-27T12:23:52;4.68;;;2.70;;
9330;SDS011;4704;50.470;12.072;2023-05-27T12:26:21;4.68;;;2.40;;
9330;SDS011;4704;50.470;12.072;2023-05-27T12:28:49;4.47;;;2.75;;
9330;SDS011;4704;50.470;12.072;2023-05-27T12:31:16;3.70;;;2.83;;
9330;SDS011;4704;50.470;12.072;2023-05-27T12:33:44;4.70;;;2.67;;
9330;SDS011;4704;50.470;12.072;2023-05-27T12:36:11;4.60;;;2.70;;
9330;SDS011;4704;50.470;12.072;2023-05-27T12:38:40;4.25;;;2.90;;
9330;SDS011;4704;50.470;12.072;2023-05-27T12:41:07;4.13;;;2.58;;
9330;SDS011;4704;50.470;12.072;2023-05-27T12:43:36;4.20;;;2.53;;
9330;SDS011;4704;50.470;12.072;2023-05-27T12:46:04;3.05;;;2.50;;
9330;SDS011;4704;50.470;12.072;2023-05-27T12:48:31;6.07;;;2.67;;
9330;SDS011;4704;50.470;12.072;2023-05-27T12:50:59;4.03;;;2.83;;
9330;SDS011;4704;50.470;12.072;2023-05-27T12:53:26;3.60;;;2.50;;
9330;SDS011;4704;50.470;12.072;2023-05-27T12:55:55;4.50;;;2.70;;
9330;SDS011;4704;50.470;12.072;2023-05-27T12:58:22;4.32;;;3.15;;
9330;SDS011;4704;50.470;12.072;2023-05-27T13:00:51;4.60;;;2.75;;
9330;SDS011;4704;50.470;12.072;2023-05-27T13:03:19;4.28;;;2.78;;
9330;SDS011;4704;50.470;12.072;2023-05-27T13:05:47;4.03;;;2.60;;
9330;SDS011;4704;50.470;12.072;2023-05-27T13:08:14;3.40;;;2.65;;
9330;SDS011;4704;50.470;12.072;2023-05-27T13:10:42;4.28;;;2.70;;
9330;SDS011;4704;50.470;12.072;2023-05-27T13:13:09;5.28;;;2.70;;
9330;SDS011;4704;50.470;12.072;2023-05-27T13:15:37;3.50;;;2.28;;
9330;SDS011;4704;50.470;12.072;2023-05-27T13:18:05;4.50;;;2.70;;
9330;SDS011;4704;50.470;12.072;2023-05-27T13:20:35;3.22;;;2.72;;
9330;SDS011;4704;50.470;12.072;2023-05-27T13:23:03;4.03;;;2.55;;
9330;SDS011;4704;50.470;12.072;2023-05-27T13:25:30;4.00;;;2.88;;
9330;SDS011;4704;50.470;12.072;2023-05-27T13:27:58;3.38;;;2.50;;
9330;SDS011;4704;50.470;12.072;2023-05-27T13:30:25;5.03;;;3.08;;
9330;SDS011;4704;50.470;12.072;2023-05-27T13:32:53;3.70;;;2.67;;
9330;SDS011;4704;50.470;12.072;2023-05-27T13:35:23;3.70;;;2.80;;
9330;SDS011;4704;50.470;12.072;2023-05-27T13:37:50;4.60;;;2.90;;
9330;SDS011;4704;50.470;12.072;2023-05-27T13:40:18;4.20;;;2.85;;
9330;SDS011;4704;50.470;12.072;2023-05-27T13:42:45;6.30;;;2.65;;
9330;SDS011;4704;50.470;12.072;2023-05-27T13:45:12;4.43;;;2.53;;
9330;SDS011;4704;50.470;12.072;2023-05-27T13:47:40;4.70;;;2.63;;
9330;SDS011;4704;50.470;12.072;2023-05-27T13:50:09;3.60;;;2.92;;
9330;SDS011;4704;50.470;12.072;2023-05-27T13:52:38;4.70;;;2.83;;
9330;SDS011;4704;50.470;12.072;2023-05-27T13:55:07;3.83;;;2.53;;
9330;SDS011;4704;50.470;12.072;2023-05-27T13:57:34;5.07;;;2.75;;
9330;SDS011;4704;50.470;12.072;2023-05-27T14:00:02;3.13;;;2.72;;
9330;SDS011;4704;50.470;12.072;2023-05-27T14:02:31;4.85;;;3.20;;
9330;SDS011;4704;50.470;12.072;2023-05-27T14:04:59;3.55;;;2.70;;
9330;SDS011;4704;50.470;12.072;2023-05-27T14:07:27;4.72;;;3.00;;
9330;SDS011;4704;50.470;12.072;2023-05-27T14:09:56;5.13;;;2.92;;
9330;SDS011;4704;50.470;12.072;2023-05-27T14:12:23;5.25;;;2.78;;
9330;SDS011;4704;50.470;12.072;2023-05-27T14:14:51;5.05;;;2.63;;
9330;SDS011;4704;50.470;12.072;2023-05-27T14:17:18;4.30;;;3.00;;
9330;SDS011;4704;50.470;12.072;2023-05-27T14:19:45;4.88;;;3.45;;
9330;SDS011;4704;50.470;12.072;2023-05-27T14:22:14;4.63;;;2.83;;
9330;SDS011;4704;50.470;12.072;2023-05-27T14:24:41;4.22;;;3.22;;
9330;SDS011;4704;50.470;12.072;2023-05-27T14:27:10;5.07;;;2.90;;
9330;SDS011;4704;50.470;12.072;2023-05-27T14:29:37;4.82;;;3.08;;
9330;SDS011;4704;50.470;12.072;2023-05-27T14:32:05;3.75;;;3.25;;
9330;SDS011;4704;50.470;12.072;2023-05-27T14:34:32;6.32;;;3.35;;
9330;SDS011;4704;50.470;12.072;2023-05-27T14:37:00;5.28;;;3.25;;
9330;SDS011;4704;50.470;12.072;2023-05-27T14:39:27;5.78;;;3.10;;
9330;SDS011;4704;50.470;12.072;2023-05-27T14:41:55;4.18;;;3.15;;
9330;SDS011;4704;50.470;12.072;2023-05-27T14:44:23;4.93;;;3.13;;
9330;SDS011;4704;50.470;12.072;2023-05-27T14:46:51;5.72;;;3.63;;
9330;SDS011;4704;50.470;12.072;2023-05-27T14:49:18;5.28;;;3.25;;
9330;SDS011;4704;50.470;12.072;2023-05-27T14:51:45;6.07;;;3.30;;
9330;SDS011;4704;50.470;12.072;2023-05-27T14:54:13;4.28;;;3.15;;
9330;SDS011;4704;50.470;12.072;2023-05-27T14:56:40;6.10;;;3.38;;
9330;SDS011;4704;50.470;12.072;2023-05-27T14:59:08;5.28;;;3.60;;
9330;SDS011;4704;50.470;12.072;2023-05-27T15:01:36;5.38;;;3.55;;
9330;SDS011;4704;50.470;12.072;2023-05-27T15:04:04;6.47;;;3.38;;
9330;SDS011;4704;50.470;12.072;2023-05-27T15:06:31;5.53;;;3.55;;
9330;SDS011;4704;50.470;12.072;2023-05-27T15:09:00;5.57;;;3.40;;